createdAt,value
2023-04-29T00:00:47.842Z,84.23
2023-04-29T00:03:18.554Z,84.34
2023-04-29T00:05:47.751Z,85.45
2023-04-29T00:08:16.483Z,84.63
2023-04-29T00:10:46.859Z,85.12
2023-04-29T00:13:15.392Z,85.16
2023-04-29T00:15:44.016Z,85.20
2023-04-29T00:18:12.637Z,84.95
2023-04-29T00:20:41.507Z,86.51
2023-04-29T00:23:10.090Z,85.80
2023-04-29T00:25:39.422Z,86.42
2023-04-29T00:28:09.920Z,87.80
2023-04-29T00:30:38.490Z,87.88
2023-04-29T00:33:07.132Z,87.92
2023-04-29T00:35:35.671Z,89.13
2023-04-29T00:38:04.352Z,87.44
2023-04-29T00:40:32.954Z,90.04
2023-04-29T00:43:01.457Z,92.33
2023-04-29T00:45:31.615Z,89.86
2023-04-29T00:48:00.155Z,91.13
2023-04-29T00:50:29.667Z,90.71
2023-04-29T00:52:58.183Z,89.90
2023-04-29T00:55:27.820Z,89.31
2023-04-29T00:57:56.470Z,89.68
2023-04-29T01:00:26.524Z,89.93
2023-04-29T01:02:57.450Z,90.39
2023-04-29T01:05:26.148Z,92.51
2023-04-29T01:08:11.028Z,92.37
2023-04-29T01:10:43.802Z,91.86
2023-04-29T01:13:23.919Z,92.98
2023-04-29T01:16:02.088Z,91.38
2023-04-29T01:18:35.425Z,91.09
2023-04-29T01:21:04.214Z,90.31
2023-04-29T01:23:34.136Z,90.70
2023-04-29T01:26:08.464Z,91.17
2023-04-29T01:28:49.156Z,92.15
2023-04-29T01:31:29.184Z,93.99
2023-04-29T01:34:08.173Z,92.36
2023-04-29T01:36:46.907Z,92.43
2023-04-29T01:39:28.814Z,92.80
2023-04-29T01:42:04.967Z,91.30
2023-04-29T01:44:35.704Z,93.16
2023-04-29T01:47:04.956Z,92.29
2023-04-29T01:49:37.514Z,92.36
2023-04-29T01:52:06.178Z,93.52
2023-04-29T01:54:37.262Z,94.94
2023-04-29T01:57:05.917Z,92.33
2023-04-29T01:59:34.350Z,92.14
2023-04-29T02:02:02.830Z,93.17
2023-04-29T02:04:34.027Z,92.69
2023-04-29T02:07:04.225Z,93.20
2023-04-29T02:09:32.788Z,93.10
2023-04-29T02:12:04.817Z,92.83
2023-04-29T02:14:37.929Z,92.52
2023-04-29T02:17:06.668Z,91.66
2023-04-29T02:19:35.244Z,91.79
2023-04-29T02:22:03.699Z,92.56
2023-04-29T02:24:32.176Z,92.54
2023-04-29T02:27:06.018Z,91.49
2023-04-29T02:29:34.801Z,92.73
2023-04-29T02:32:03.411Z,92.37
2023-04-29T02:34:32.385Z,94.14
2023-04-29T02:37:00.868Z,94.10
2023-04-29T02:39:29.352Z,93.97
2023-04-29T02:41:57.827Z,93.96
2023-04-29T02:44:27.843Z,94.20
2023-04-29T02:46:56.325Z,95.06
2023-04-29T02:49:24.829Z,96.50
2023-04-29T02:51:53.536Z,94.32
2023-04-29T02:54:22.097Z,94.68
2023-04-29T02:56:51.008Z,94.85
2023-04-29T02:59:19.499Z,94.59
2023-04-29T03:01:49.403Z,94.79
2023-04-29T03:04:18.133Z,96.09
2023-04-29T03:06:46.944Z,95.33
2023-04-29T03:09:15.451Z,94.32
2023-04-29T03:11:43.993Z,95.55
2023-04-29T03:14:12.772Z,95.35
2023-04-29T03:16:41.334Z,96.00
2023-04-29T03:19:11.289Z,95.67
2023-04-29T03:21:39.783Z,95.82
2023-04-29T03:24:08.297Z,95.84
2023-04-29T03:26:36.749Z,96.42
2023-04-29T03:29:05.154Z,95.76
2023-04-29T03:31:34.393Z,95.88
2023-04-29T03:34:02.991Z,96.16
2023-04-29T03:36:35.290Z,97.43
2023-04-29T03:39:03.700Z,97.66
2023-04-29T03:41:32.273Z,96.99
2023-04-29T03:44:01.262Z,96.32
2023-04-29T03:46:29.970Z,95.47
2023-04-29T03:48:58.551Z,95.84
2023-04-29T03:51:27.567Z,96.23
2023-04-29T03:53:58.136Z,96.07
2023-04-29T03:56:26.864Z,96.12
2023-04-29T03:58:55.474Z,98.70
2023-04-29T04:01:23.897Z,97.59
2023-04-29T04:03:52.601Z,96.95
2023-04-29T04:06:21.550Z,99.17
2023-04-29T04:08:50.017Z,100.00
2023-04-29T04:11:19.940Z,98.91
2023-04-29T04:13:48.376Z,100.00
2023-04-29T04:16:17.041Z,100.00
2023-04-29T04:18:45.594Z,100.00
2023-04-29T04:21:14.642Z,100.00
2023-04-29T04:23:44.264Z,100.00
2023-04-29T04:26:12.880Z,100.00
2023-04-29T04:28:42.921Z,99.97
2023-04-29T04:31:11.887Z,100.00
2023-04-29T04:33:40.463Z,100.00
2023-04-29T04:36:09.360Z,100.00
2023-04-29T04:38:37.794Z,100.00
2023-04-29T04:41:08.933Z,100.00
2023-04-29T04:43:37.529Z,100.00
2023-04-29T04:46:13.680Z,100.00
2023-04-29T04:48:42.426Z,100.00
2023-04-29T04:51:11.673Z,100.00
2023-04-29T04:53:40.826Z,99.46
2023-04-29T04:56:10.046Z,100.00
2023-04-29T04:58:38.489Z,100.00
2023-04-29T05:01:07.132Z,100.00
2023-04-29T05:03:37.216Z,100.00
2023-04-29T05:06:05.993Z,100.00
2023-04-29T05:08:34.490Z,100.00
2023-04-29T05:11:02.935Z,100.00
2023-04-29T05:13:31.536Z,100.00
2023-04-29T05:16:00.043Z,100.00
2023-04-29T05:18:28.528Z,100.00
2023-04-29T05:21:00.276Z,100.00
2023-04-29T05:23:29.398Z,100.00
2023-04-29T05:25:58.002Z,100.00
2023-04-29T05:28:28.108Z,100.00
2023-04-29T05:30:56.944Z,100.00
2023-04-29T05:33:25.574Z,100.00
2023-04-29T05:35:54.150Z,100.00
2023-04-29T05:38:29.348Z,100.00
2023-04-29T05:40:58.243Z,100.00
2023-04-29T05:43:27.716Z,99.89
2023-04-29T05:45:56.464Z,100.00
2023-04-29T05:48:25.126Z,99.07
2023-04-29T05:50:54.431Z,99.37
2023-04-29T05:53:27.179Z,99.39
2023-04-29T05:55:55.772Z,99.55
2023-04-29T05:58:24.342Z,100.00
2023-04-29T06:00:53.071Z,99.58
2023-04-29T06:03:21.790Z,99.35
2023-04-29T06:05:50.709Z,98.54
2023-04-29T06:08:19.945Z,97.94
2023-04-29T06:10:52.142Z,98.08
2023-04-29T06:13:21.302Z,97.56
2023-04-29T06:15:50.020Z,97.99
2023-04-29T06:18:18.489Z,97.27
2023-04-29T06:20:47.075Z,97.48
2023-04-29T06:23:15.601Z,98.23
2023-04-29T06:25:44.449Z,97.08
2023-04-29T06:28:14.266Z,97.67
2023-04-29T06:30:42.756Z,98.17
2023-04-29T06:33:11.819Z,98.02
2023-04-29T06:35:41.648Z,99.41
2023-04-29T06:38:10.169Z,99.55
2023-04-29T06:40:38.742Z,99.15
2023-04-29T06:43:07.361Z,98.71
2023-04-29T06:45:37.537Z,99.58
2023-04-29T06:48:06.597Z,98.68
2023-04-29T06:50:35.149Z,99.63
2023-04-29T06:53:03.733Z,100.00
2023-04-29T06:55:35.275Z,99.79
2023-04-29T06:58:06.248Z,100.00
2023-04-29T07:00:34.860Z,100.00
2023-04-29T07:03:05.071Z,100.00
2023-04-29T07:05:33.797Z,100.00
2023-04-29T07:08:02.690Z,100.00
2023-04-29T07:10:31.139Z,100.00
2023-04-29T07:13:00.544Z,100.00
2023-04-29T07:15:30.548Z,100.00
2023-04-29T07:17:59.126Z,100.00
2023-04-29T07:20:28.971Z,100.00
2023-04-29T07:22:57.522Z,100.00
2023-04-29T07:25:26.061Z,100.00
2023-04-29T07:27:54.507Z,100.00
2023-04-29T07:30:23.601Z,100.00
2023-04-29T07:32:52.083Z,100.00
2023-04-29T07:35:21.098Z,100.00
2023-04-29T07:37:51.006Z,100.00
2023-04-29T07:40:19.572Z,100.00
2023-04-29T07:42:50.999Z,100.00
2023-04-29T07:45:22.145Z,100.00
2023-04-29T07:47:50.635Z,100.00
2023-04-29T07:50:19.378Z,100.00
2023-04-29T07:52:47.880Z,100.00
2023-04-29T07:55:18.117Z,100.00
2023-04-29T07:57:46.840Z,100.00
2023-04-29T08:00:15.932Z,100.00
2023-04-29T08:02:45.059Z,100.00
2023-04-29T08:05:13.948Z,100.00
2023-04-29T08:07:42.667Z,100.00
2023-04-29T08:10:11.770Z,100.00
2023-04-29T08:12:41.781Z,100.00
2023-04-29T08:15:11.005Z,100.00
2023-04-29T08:17:39.603Z,100.00
2023-04-29T08:20:09.591Z,100.00
2023-04-29T08:22:38.224Z,100.00
2023-04-29T08:25:08.944Z,100.00
2023-04-29T08:27:37.527Z,100.00
2023-04-29T08:30:09.210Z,100.00
2023-04-29T08:32:37.743Z,100.00
2023-04-29T08:35:06.922Z,100.00
2023-04-29T08:37:35.455Z,100.00
2023-04-29T08:40:04.042Z,100.00
2023-04-29T08:42:37.261Z,100.00
2023-04-29T08:45:08.744Z,100.00
2023-04-29T08:47:38.404Z,100.00
2023-04-29T08:50:08.839Z,100.00
2023-04-29T08:52:37.417Z,100.00
2023-04-29T08:55:07.184Z,100.00
2023-04-29T08:57:40.101Z,100.00
2023-04-29T09:00:12.000Z,100.00
2023-04-29T09:02:46.619Z,100.00
2023-04-29T09:05:15.409Z,100.00
2023-04-29T09:07:44.237Z,100.00
2023-04-29T09:10:13.403Z,100.00
2023-04-29T09:12:42.005Z,100.00
2023-04-29T09:15:12.715Z,100.00
2023-04-29T09:17:45.462Z,100.00
2023-04-29T09:20:29.537Z,100.00
2023-04-29T09:22:59.999Z,100.00
2023-04-29T09:25:28.976Z,100.00
2023-04-29T09:27:57.968Z,100.00
2023-04-29T09:30:28.017Z,100.00
2023-04-29T09:33:08.436Z,100.00
2023-04-29T09:35:37.756Z,100.00
2023-04-29T09:38:14.753Z,100.00
2023-04-29T09:40:58.218Z,100.00
2023-04-29T09:43:28.409Z,100.00
2023-04-29T09:45:58.576Z,100.00
2023-04-29T09:48:34.015Z,100.00
2023-04-29T09:51:04.261Z,100.00
2023-04-29T09:53:33.588Z,100.00
2023-04-29T09:56:03.937Z,100.00
2023-04-29T09:58:38.006Z,100.00
2023-04-29T10:01:08.810Z,100.00
2023-04-29T10:03:39.201Z,100.00
2023-04-29T10:06:08.768Z,100.00
2023-04-29T10:08:37.521Z,100.00
2023-04-29T10:11:06.522Z,100.00
2023-04-29T10:13:38.793Z,100.00
2023-04-29T10:16:17.359Z,100.00
2023-04-29T10:18:51.342Z,100.00
2023-04-29T10:21:23.761Z,100.00
2023-04-29T10:23:55.434Z,100.00
2023-04-29T10:26:27.890Z,100.00
2023-04-29T10:28:57.950Z,100.00
2023-04-29T10:31:30.908Z,100.00
2023-04-29T10:34:01.962Z,100.00
2023-04-29T10:36:31.788Z,100.00
2023-04-29T10:39:03.787Z,100.00
2023-04-29T10:41:38.230Z,100.00
2023-04-29T10:44:06.854Z,100.00
2023-04-29T10:46:38.408Z,100.00
2023-04-29T10:49:08.041Z,100.00
2023-04-29T10:51:40.933Z,100.00
2023-04-29T10:54:11.843Z,100.00
2023-04-29T10:56:42.317Z,100.00
2023-04-29T10:59:16.315Z,100.00
2023-04-29T11:01:50.815Z,100.00
2023-04-29T11:04:19.902Z,100.00
2023-04-29T11:06:50.003Z,100.00
2023-04-29T11:09:23.448Z,100.00
2023-04-29T11:12:03.066Z,100.00
2023-04-29T11:14:33.932Z,100.00
2023-04-29T11:17:06.327Z,100.00
2023-04-29T11:19:36.155Z,100.00
2023-04-29T11:22:13.807Z,100.00
2023-04-29T11:24:57.323Z,100.00
2023-04-29T11:27:27.764Z,100.00
2023-04-29T11:29:59.062Z,100.00
2023-04-29T11:32:30.188Z,97.95
2023-04-29T11:35:09.798Z,98.10
2023-04-29T11:37:38.595Z,99.06
2023-04-29T11:40:08.975Z,97.76
2023-04-29T11:42:37.859Z,94.99
2023-04-29T11:45:07.117Z,95.24
2023-04-29T11:47:37.573Z,95.73
2023-04-29T11:50:08.091Z,94.02
2023-04-29T11:52:38.893Z,94.46
2023-04-29T11:55:10.197Z,94.78
2023-04-29T11:57:39.478Z,93.29
2023-04-29T12:00:12.002Z,92.18
2023-04-29T12:02:47.233Z,91.83
2023-04-29T12:05:17.633Z,90.45
2023-04-29T12:07:46.544Z,87.90
2023-04-29T12:10:15.029Z,89.32
2023-04-29T12:12:45.660Z,91.04
2023-04-29T12:15:14.957Z,90.50
2023-04-29T12:17:46.764Z,90.01
2023-04-29T12:20:15.610Z,90.24
2023-04-29T12:22:45.268Z,89.64
2023-04-29T12:25:17.121Z,89.67
2023-04-29T12:27:45.704Z,89.48
2023-04-29T12:30:14.371Z,89.13
2023-04-29T12:32:42.978Z,88.77
2023-04-29T12:35:20.386Z,87.38
2023-04-29T12:37:52.143Z,87.75
2023-04-29T12:40:21.389Z,88.37
2023-04-29T12:42:50.162Z,88.69
2023-04-29T12:45:29.309Z,89.06
2023-04-29T12:47:59.955Z,89.80
2023-04-29T12:50:34.576Z,89.62
2023-04-29T12:53:03.755Z,89.91
2023-04-29T12:55:34.871Z,89.83
2023-04-29T12:58:03.761Z,89.98
2023-04-29T13:00:32.777Z,92.44
2023-04-29T13:03:01.671Z,92.69
2023-04-29T13:05:30.354Z,93.29
2023-04-29T13:08:00.292Z,92.79
2023-04-29T13:10:29.704Z,93.57
2023-04-29T13:12:58.599Z,93.99
2023-04-29T13:15:27.415Z,94.63
2023-04-29T13:17:56.413Z,93.66
2023-04-29T13:20:25.052Z,92.77
2023-04-29T13:22:53.467Z,88.71
2023-04-29T13:25:23.396Z,87.87
2023-04-29T13:27:52.165Z,89.39
2023-04-29T13:30:20.952Z,87.65
2023-04-29T13:32:53.814Z,84.23
2023-04-29T13:35:25.189Z,86.50
2023-04-29T13:37:53.664Z,84.68
2023-04-29T13:40:27.576Z,83.90
2023-04-29T13:43:05.598Z,85.22
2023-04-29T13:45:39.830Z,84.18
2023-04-29T13:48:21.083Z,84.82
2023-04-29T13:51:17.482Z,81.29
2023-04-29T13:57:02.759Z,82.91
2023-04-29T14:02:21.493Z,82.60
2023-04-29T14:04:28.308Z,83.09
2023-04-29T14:06:57.960Z,81.33
2023-04-29T14:09:26.593Z,82.78
2023-04-29T14:11:56.508Z,83.68
2023-04-29T14:14:24.975Z,84.68
2023-04-29T14:16:53.451Z,85.91
2023-04-29T14:19:21.931Z,85.87
2023-04-29T14:21:50.414Z,85.54
2023-04-29T14:24:18.816Z,86.61
2023-04-29T14:26:47.301Z,86.23
2023-04-29T14:29:17.208Z,85.69
2023-04-29T14:31:45.941Z,85.22
2023-04-29T14:34:14.727Z,85.57
2023-04-29T14:36:45.394Z,85.78
2023-04-29T14:39:15.085Z,84.26
2023-04-29T14:41:43.672Z,85.68
2023-04-29T14:44:14.812Z,86.27
2023-04-29T14:46:44.777Z,85.68
2023-04-29T14:49:15.582Z,87.29
2023-04-29T14:51:44.073Z,89.14
2023-04-29T14:54:12.817Z,90.22
2023-04-29T14:56:41.430Z,88.97
2023-04-29T14:59:10.220Z,88.09
2023-04-29T15:01:40.025Z,87.82
2023-04-29T15:04:10.238Z,87.45
2023-04-29T15:06:39.107Z,88.05
2023-04-29T15:09:08.132Z,87.02
2023-04-29T15:11:36.743Z,86.50
2023-04-29T15:14:05.271Z,85.02
2023-04-29T15:16:33.744Z,86.25
2023-04-29T15:19:02.391Z,86.06
2023-04-29T15:21:33.361Z,86.70
2023-04-29T15:24:03.348Z,87.25
2023-04-29T15:26:31.898Z,94.51
2023-04-29T15:29:00.450Z,100.00
2023-04-29T15:31:30.680Z,100.00
2023-04-29T15:33:59.400Z,100.00
2023-04-29T15:36:32.887Z,100.00
2023-04-29T15:39:01.436Z,100.00
2023-04-29T15:41:30.156Z,100.00
2023-04-29T15:43:59.235Z,100.00
2023-04-29T15:46:28.960Z,100.00
2023-04-29T15:48:57.456Z,100.00
2023-04-29T15:51:26.461Z,100.00
2023-04-29T15:53:56.793Z,100.00
2023-04-29T15:56:26.088Z,100.00
2023-04-29T15:58:54.855Z,100.00
2023-04-29T16:01:23.880Z,100.00
2023-04-29T16:03:52.583Z,100.00
2023-04-29T16:06:23.820Z,100.00
2023-04-29T16:08:52.915Z,100.00
2023-04-29T16:11:23.248Z,100.00
2023-04-29T16:13:52.048Z,100.00
2023-04-29T16:16:21.057Z,100.00
2023-04-29T16:18:49.724Z,100.00
2023-04-29T16:21:18.842Z,100.00
2023-04-29T16:23:48.144Z,100.00
2023-04-29T16:26:17.848Z,100.00
2023-04-29T16:28:47.937Z,100.00
2023-04-29T16:31:17.732Z,100.00
2023-04-29T16:33:46.584Z,100.00
2023-04-29T16:36:15.489Z,100.00
2023-04-29T16:38:44.575Z,100.00
2023-04-29T16:41:13.257Z,100.00
2023-04-29T16:43:41.964Z,100.00
2023-04-29T16:46:12.549Z,100.00
2023-04-29T16:48:42.525Z,100.00
2023-04-29T16:51:11.390Z,100.00
2023-04-29T16:53:39.894Z,100.00
2023-04-29T16:56:08.791Z,100.00
2023-04-29T16:58:37.518Z,100.00
2023-04-29T17:01:08.135Z,100.00
2023-04-29T17:03:38.727Z,100.00
2023-04-29T17:06:07.924Z,100.00
2023-04-29T17:08:37.049Z,100.00
2023-04-29T17:11:06.614Z,100.00
2023-04-29T17:13:35.355Z,100.00
2023-04-29T17:16:04.222Z,100.00
2023-04-29T17:18:33.669Z,100.00
2023-04-29T17:21:04.290Z,100.00
2023-04-29T17:23:33.337Z,100.00
2023-04-29T17:26:05.558Z,100.00
2023-04-29T17:28:34.813Z,100.00
2023-04-29T17:31:03.884Z,100.00
2023-04-29T17:33:35.761Z,100.00
2023-04-29T17:36:08.731Z,100.00
2023-04-29T17:38:38.178Z,100.00
2023-04-29T17:41:06.937Z,100.00
2023-04-29T17:43:35.810Z,100.00
2023-04-29T17:46:04.459Z,100.00
2023-04-29T17:48:32.973Z,100.00
2023-04-29T17:51:01.484Z,100.00
2023-04-29T17:53:33.479Z,100.00
2023-04-29T17:56:02.113Z,100.00
2023-04-29T17:58:30.692Z,100.00
2023-04-29T18:00:59.486Z,100.00
2023-04-29T18:03:30.515Z,100.00
2023-04-29T18:05:59.086Z,100.00
2023-04-29T18:08:28.256Z,100.00
2023-04-29T18:10:58.182Z,100.00
2023-04-29T18:13:27.311Z,100.00
2023-04-29T18:15:56.197Z,100.00
2023-04-29T18:18:24.643Z,100.00
2023-04-29T18:20:53.743Z,100.00
2023-04-29T18:23:22.932Z,100.00
2023-04-29T18:25:51.366Z,100.00
2023-04-29T18:28:25.386Z,100.00
2023-04-29T18:30:55.678Z,100.00
2023-04-29T18:33:26.776Z,100.00
2023-04-29T18:35:55.969Z,100.00
2023-04-29T18:38:24.731Z,100.00
2023-04-29T18:40:53.137Z,100.00
2023-04-29T18:43:28.482Z,100.00
2023-04-29T18:45:57.308Z,100.00
2023-04-29T18:48:27.991Z,100.00
2023-04-29T18:50:59.572Z,100.00
2023-04-29T18:53:28.320Z,100.00
2023-04-29T18:55:56.854Z,100.00
2023-04-29T18:58:27.690Z,100.00
2023-04-29T19:00:57.958Z,100.00
2023-04-29T19:03:27.396Z,100.00
2023-04-29T19:05:55.986Z,100.00
2023-04-29T19:08:24.770Z,100.00
2023-04-29T19:10:54.379Z,100.00
2023-04-29T19:13:22.793Z,100.00
2023-04-29T19:15:54.760Z,100.00
2023-04-29T19:18:24.032Z,100.00
2023-04-29T19:20:54.287Z,100.00
2023-04-29T19:23:22.928Z,100.00
2023-04-29T19:25:54.374Z,100.00
2023-04-29T19:28:22.937Z,100.00
2023-04-29T19:30:52.916Z,100.00
2023-04-29T19:33:22.104Z,100.00
2023-04-29T19:35:51.201Z,100.00
2023-04-29T19:38:20.016Z,100.00
2023-04-29T19:40:49.206Z,100.00
2023-04-29T19:43:18.243Z,100.00
2023-04-29T19:45:46.894Z,100.00
2023-04-29T19:48:17.067Z,100.00
2023-04-29T19:50:45.627Z,100.00
2023-04-29T19:53:14.527Z,100.00
2023-04-29T19:55:43.454Z,100.00
2023-04-29T19:58:12.047Z,100.00
2023-04-29T20:00:40.785Z,100.00
2023-04-29T20:03:09.672Z,100.00
2023-04-29T20:05:41.527Z,100.00
2023-04-29T20:08:10.753Z,100.00
2023-04-29T20:10:39.238Z,100.00
2023-04-29T20:13:08.120Z,100.00
2023-04-29T20:15:37.826Z,100.00
2023-04-29T20:18:06.963Z,100.00
2023-04-29T20:20:42.712Z,100.00
2023-04-29T20:23:11.585Z,100.00
2023-04-29T20:25:40.331Z,100.00
2023-04-29T20:28:09.396Z,100.00
2023-04-29T20:30:38.177Z,100.00
2023-04-29T20:33:08.670Z,100.00
2023-04-29T20:35:37.981Z,100.00
2023-04-29T20:38:08.750Z,100.00
2023-04-29T20:40:37.335Z,100.00
2023-04-29T20:43:06.022Z,100.00
2023-04-29T20:45:34.475Z,100.00
2023-04-29T20:48:04.361Z,100.00
2023-04-29T20:50:33.117Z,100.00
2023-04-29T20:53:02.316Z,100.00
2023-04-29T20:55:33.028Z,100.00
2023-04-29T20:58:01.753Z,100.00
2023-04-29T21:00:30.450Z,100.00
2023-04-29T21:02:59.149Z,100.00
2023-04-29T21:05:27.824Z,100.00
2023-04-29T21:07:56.318Z,100.00
2023-04-29T21:10:25.093Z,100.00
2023-04-29T21:12:55.669Z,100.00
2023-04-29T21:15:24.647Z,100.00
2023-04-29T21:17:53.212Z,100.00
2023-04-29T21:20:24.815Z,100.00
2023-04-29T21:22:55.893Z,100.00
2023-04-29T21:25:26.769Z,100.00
2023-04-29T21:27:56.891Z,100.00
2023-04-29T21:30:26.618Z,100.00
2023-04-29T21:32:55.372Z,100.00
2023-04-29T21:35:25.287Z,100.00
2023-04-29T21:37:53.905Z,100.00
2023-04-29T21:40:23.140Z,100.00
2023-04-29T21:42:52.520Z,100.00
2023-04-29T21:45:23.247Z,100.00
2023-04-29T21:47:52.351Z,100.00
2023-04-29T21:50:21.423Z,100.00
2023-04-29T21:52:50.885Z,100.00
2023-04-29T21:55:19.931Z,100.00
2023-04-29T21:57:48.340Z,100.00
2023-04-29T22:00:33.262Z,100.00
2023-04-29T22:03:04.056Z,100.00
2023-04-29T22:05:33.485Z,100.00
2023-04-29T22:08:03.498Z,100.00
2023-04-29T22:10:32.333Z,100.00
2023-04-29T22:13:01.359Z,100.00
2023-04-29T22:15:30.045Z,100.00
2023-04-29T22:17:58.681Z,100.00
2023-04-29T22:20:29.277Z,100.00
2023-04-29T22:22:58.428Z,100.00
2023-04-29T22:25:27.071Z,100.00
2023-04-29T22:27:55.737Z,100.00
2023-04-29T22:30:24.318Z,100.00
2023-04-29T22:32:52.980Z,100.00
2023-04-29T22:35:21.682Z,100.00
2023-04-29T22:37:52.055Z,100.00
2023-04-29T22:40:20.746Z,100.00
2023-04-29T22:42:49.343Z,100.00
2023-04-29T22:45:18.439Z,100.00
2023-04-29T22:47:47.263Z,100.00
2023-04-29T22:50:16.134Z,100.00
2023-04-29T22:52:44.925Z,100.00
2023-04-29T22:55:15.441Z,100.00
2023-04-29T22:57:44.038Z,100.00
2023-04-29T23:00:14.583Z,100.00
2023-04-29T23:02:43.609Z,100.00
2023-04-29T23:05:12.163Z,100.00
2023-04-29T23:07:41.454Z,100.00
2023-04-29T23:10:10.677Z,100.00
2023-04-29T23:12:40.685Z,100.00
2023-04-29T23:15:10.144Z,100.00
2023-04-29T23:17:40.005Z,100.00
2023-04-29T23:20:09.830Z,100.00
2023-04-29T23:22:38.350Z,100.00
2023-04-29T23:25:07.480Z,100.00
2023-04-29T23:27:36.096Z,100.00
2023-04-29T23:30:07.620Z,100.00
2023-04-29T23:32:36.923Z,100.00
2023-04-29T23:35:06.384Z,100.00
2023-04-29T23:37:35.093Z,100.00
2023-04-29T23:40:05.083Z,100.00
2023-04-29T23:42:33.897Z,100.00
2023-04-29T23:45:02.618Z,100.00
2023-04-29T23:47:32.953Z,100.00
2023-04-29T23:50:01.510Z,100.00
2023-04-29T23:52:30.338Z,100.00
2023-04-29T23:54:58.857Z,100.00
2023-04-29T23:57:28.076Z,100.00
2023-04-29T23:59:57.318Z,100.00
